Pezhoto — LZG2277 — position and weather

sailwx.info

Track history (hours):
 
Tides and Currents Weather Stations Pressure Air Temp Water Temp Dewpoint Dewpoint Depression Visibility Wind Speed Wind Dir Waves Ship Positions

Pezhoto

Last reported at 2018-Jan-19 08:01 UTC. Time now 2018-Feb-19 23:23 UTC.
Position N 44°17' E 028°04'.
Warning: this ship's position is 31 days out of date.

Length 80 m.

Type: Ship (hazmat cat D). MMSI: 207072277.

Date/timePositionNaut miles runAvg speedWind from/ knotsBaromVisibWave heightAir tempDewpointWater temp
2018-Jan-19 08:01N 44°17' E 028°04'1 7.3
2018-Jan-19 07:54N 44°17' E 028°05'3 7.1
2018-Jan-19 07:30N 44°16' E 028°08'3 6.9
2018-Jan-19 07:00N 44°15' E 028°13'3 6.3
2018-Jan-19 06:30N 44°15' E 028°17'3 6.4
2018-Jan-19 06:00N 44°14' E 028°22'3 6.1
2018-Jan-19 05:30N 44°11' E 028°24'0 0.3
2018-Jan-19 04:38N 44°11' E 028°24'0 0.0
2018-Jan-19 04:31N 44°11' E 028°24'0 0.0
2018-Jan-19 04:00N 44°11' E 028°24'0 0.0
2018-Jan-19 03:27N 44°11' E 028°24'0 0.0
2018-Jan-19 03:01N 44°11' E 028°24'0 0.0
2018-Jan-19 02:30N 44°11' E 028°24'0 0.0
2018-Jan-19 01:59N 44°11' E 028°24'0 0.0
2018-Jan-19 01:30N 44°11' E 028°24'0 0.0
2018-Jan-19 00:57N 44°11' E 028°24'0 0.0
2018-Jan-19 00:31N 44°11' E 028°24'0 0.0
2018-Jan-19 00:00N 44°11' E 028°24'0 0.0
2018-Jan-18 23:29N 44°11' E 028°24'0 0.0
2018-Jan-18 23:01N 44°11' E 028°24'0 0.0
2018-Jan-18 22:30N 44°11' E 028°24'0 0.0
2018-Jan-18 22:00N 44°11' E 028°24'0 0.0
2018-Jan-18 21:30N 44°11' E 028°24'0 0.0
2018-Jan-18 21:00N 44°11' E 028°24'0 0.0
2018-Jan-18 20:29N 44°11' E 028°24'0 0.0
2018-Jan-18 19:58N 44°11' E 028°24'0 0.0
2018-Jan-18 19:30N 44°11' E 028°24'0 0.0
2018-Jan-18 18:59N 44°11' E 028°24'0 0.0
2018-Jan-18 18:27N 44°11' E 028°24'0 0.0
2018-Jan-18 18:00N 44°11' E 028°24'0 0.0
2018-Jan-18 17:30N 44°11' E 028°24'0 0.0
2018-Jan-18 17:00N 44°11' E 028°24'0 0.0
2018-Jan-18 16:30N 44°11' E 028°24'0 0.0
2018-Jan-18 16:01N 44°11' E 028°24'0 0.0
2018-Jan-18 15:28N 44°11' E 028°24'0 0.0
2018-Jan-18 14:59N 44°11' E 028°24'0 0.0
2018-Jan-18 14:30N 44°11' E 028°24'0 0.0
2018-Jan-18 14:00N 44°11' E 028°24'0 0.0
2018-Jan-18 13:30N 44°11' E 028°24'0 0.0
2018-Jan-18 13:00N 44°11' E 028°24'0 0.0
2018-Jan-18 12:31N 44°11' E 028°24'0 0.0
2018-Jan-18 11:59N 44°11' E 028°24'0 0.0
2018-Jan-18 11:27N 44°11' E 028°24'0 0.0
2018-Jan-18 10:58N 44°11' E 028°24'0 0.0
2018-Jan-18 10:28N 44°11' E 028°24'0 0.0
2018-Jan-18 09:59N 44°11' E 028°24'0 0.0
2018-Jan-18 09:29N 44°11' E 028°24'8 4.4
2018-Jan-18 07:42N 44°06' E 028°32'1 6.8
2018-Jan-18 07:29N 44°06' E 028°34'2 5.2
2018-Jan-18 07:00N 44°06' E 028°37'0 0.0
2018-Jan-18 06:30N 44°06' E 028°37'0 0.5
2018-Jan-18 06:00N 44°06' E 028°38'0 0.3
2018-Jan-18 05:30N 44°06' E 028°38'0 0.0
2018-Jan-18 04:59N 44°06' E 028°38'0 0.0
2018-Jan-18 04:30N 44°06' E 028°38'1 2.5
2018-Jan-18 04:00N 44°06' E 028°39'0 0.2
2018-Jan-18 03:30N 44°06' E 028°39'0 0.0
2018-Jan-18 03:00N 44°06' E 028°39'0 0.0
2018-Jan-18 02:30N 44°06' E 028°39'0 0.0
2018-Jan-18 02:00N 44°06' E 028°39'0 0.0
2018-Jan-18 01:30N 44°06' E 028°39'0 0.0
2018-Jan-18 01:00N 44°06' E 028°39'0 0.0
2018-Jan-18 00:00N 44°06' E 028°39'0 0.0
2018-Jan-17 23:57N 44°06' E 028°39'  
Track history (hours):
 
Tides and Currents Weather Stations Pressure Air Temp Water Temp Dewpoint Dewpoint Depression Visibility Wind Speed Wind Dir Waves Ship Positions

Pezhoto

Last reported at 2018-Jan-19 08:01 UTC. Time now 2018-Feb-19 23:23 UTC.
Position N 44°17' E 028°04'.
Warning: this ship's position is 31 days out of date.

Length 80 m.

Type: Ship (hazmat cat D). MMSI: 207072277.

Date/timePositionNaut miles runAvg speedWind from/ knotsBaromVisibWave heightAir tempDewpointWater temp
2018-Jan-19 08:01N 44°17' E 028°04'1 7.3
2018-Jan-19 07:54N 44°17' E 028°05'3 7.1
2018-Jan-19 07:30N 44°16' E 028°08'3 6.9
2018-Jan-19 07:00N 44°15' E 028°13'3 6.3
2018-Jan-19 06:30N 44°15' E 028°17'3 6.4
2018-Jan-19 06:00N 44°14' E 028°22'3 6.1
2018-Jan-19 05:30N 44°11' E 028°24'0 0.3
2018-Jan-19 04:38N 44°11' E 028°24'0 0.0
2018-Jan-19 04:31N 44°11' E 028°24'0 0.0
2018-Jan-19 04:00N 44°11' E 028°24'0 0.0
2018-Jan-19 03:27N 44°11' E 028°24'0 0.0
2018-Jan-19 03:01N 44°11' E 028°24'0 0.0
2018-Jan-19 02:30N 44°11' E 028°24'0 0.0
2018-Jan-19 01:59N 44°11' E 028°24'0 0.0
2018-Jan-19 01:30N 44°11' E 028°24'0 0.0
2018-Jan-19 00:57N 44°11' E 028°24'0 0.0
2018-Jan-19 00:31N 44°11' E 028°24'0 0.0
2018-Jan-19 00:00N 44°11' E 028°24'0 0.0
2018-Jan-18 23:29N 44°11' E 028°24'0 0.0
2018-Jan-18 23:01N 44°11' E 028°24'0 0.0
2018-Jan-18 22:30N 44°11' E 028°24'0 0.0
2018-Jan-18 22:00N 44°11' E 028°24'0 0.0
2018-Jan-18 21:30N 44°11' E 028°24'0 0.0
2018-Jan-18 21:00N 44°11' E 028°24'0 0.0
2018-Jan-18 20:29N 44°11' E 028°24'0 0.0
2018-Jan-18 19:58N 44°11' E 028°24'0 0.0
2018-Jan-18 19:30N 44°11' E 028°24'0 0.0
2018-Jan-18 18:59N 44°11' E 028°24'0 0.0
2018-Jan-18 18:27N 44°11' E 028°24'0 0.0
2018-Jan-18 18:00N 44°11' E 028°24'0 0.0
2018-Jan-18 17:30N 44°11' E 028°24'0 0.0
2018-Jan-18 17:00N 44°11' E 028°24'0 0.0
2018-Jan-18 16:30N 44°11' E 028°24'0 0.0
2018-Jan-18 16:01N 44°11' E 028°24'0 0.0
2018-Jan-18 15:28N 44°11' E 028°24'0 0.0
2018-Jan-18 14:59N 44°11' E 028°24'0 0.0
2018-Jan-18 14:30N 44°11' E 028°24'0 0.0
2018-Jan-18 14:00N 44°11' E 028°24'0 0.0
2018-Jan-18 13:30N 44°11' E 028°24'0 0.0
2018-Jan-18 13:00N 44°11' E 028°24'0 0.0
2018-Jan-18 12:31N 44°11' E 028°24'0 0.0
2018-Jan-18 11:59N 44°11' E 028°24'0 0.0
2018-Jan-18 11:27N 44°11' E 028°24'0 0.0
2018-Jan-18 10:58N 44°11' E 028°24'0 0.0
2018-Jan-18 10:28N 44°11' E 028°24'0 0.0
2018-Jan-18 09:59N 44°11' E 028°24'0 0.0
2018-Jan-18 09:29N 44°11' E 028°24'8 4.4
2018-Jan-18 07:42N 44°06' E 028°32'1 6.8
2018-Jan-18 07:29N 44°06' E 028°34'2 5.2
2018-Jan-18 07:00N 44°06' E 028°37'0 0.0
2018-Jan-18 06:30N 44°06' E 028°37'0 0.5
2018-Jan-18 06:00N 44°06' E 028°38'0 0.3
2018-Jan-18 05:30N 44°06' E 028°38'0 0.0
2018-Jan-18 04:59N 44°06' E 028°38'0 0.0
2018-Jan-18 04:30N 44°06' E 028°38'1 2.5
2018-Jan-18 04:00N 44°06' E 028°39'0 0.2
2018-Jan-18 03:30N 44°06' E 028°39'0 0.0
2018-Jan-18 03:00N 44°06' E 028°39'0 0.0
2018-Jan-18 02:30N 44°06' E 028°39'0 0.0
2018-Jan-18 02:00N 44°06' E 028°39'0 0.0
2018-Jan-18 01:30N 44°06' E 028°39'0 0.0
2018-Jan-18 01:00N 44°06' E 028°39'0 0.0
2018-Jan-18 00:00N 44°06' E 028°39'0 0.0
2018-Jan-17 23:57N 44°06' E 028°39'  

Dump ship's entire track history